sensor_id;sensor_type;location;lat;lon;timestamp;P1;P2;P0
65383;PMS5003;51986;52.788;41.368;2024-01-06T00:01:13;0.00;0.00;0.00
65383;PMS5003;51986;52.788;41.368;2024-01-06T00:03:41;0.00;0.00;0.00
65383;PMS5003;51986;52.788;41.368;2024-01-06T00:06:11;0.00;0.00;0.00
65383;PMS5003;51986;52.788;41.368;2024-01-06T00:08:38;0.00;0.00;0.00
65383;PMS5003;51986;52.788;41.368;2024-01-06T00:11:06;0.00;0.00;0.00
65383;PMS5003;51986;52.788;41.368;2024-01-06T00:13:33;0.00;0.00;0.00
65383;PMS5003;51986;52.788;41.368;2024-01-06T00:16:00;0.00;0.00;0.00
65383;PMS5003;51986;52.788;41.368;2024-01-06T00:18:27;0.00;0.00;0.00
65383;PMS5003;51986;52.788;41.368;2024-01-06T00:20:54;0.00;0.00;0.00
65383;PMS5003;51986;52.788;41.368;2024-01-06T00:23:22;0.00;0.00;0.00
65383;PMS5003;51986;52.788;41.368;2024-01-06T00:25:49;0.00;0.00;0.00
65383;PMS5003;51986;52.788;41.368;2024-01-06T00:28:16;0.00;0.00;0.00
65383;PMS5003;51986;52.788;41.368;2024-01-06T00:30:43;0.00;0.00;0.00
65383;PMS5003;51986;52.788;41.368;2024-01-06T00:33:10;0.00;0.00;0.00
65383;PMS5003;51986;52.788;41.368;2024-01-06T00:35:37;0.00;0.00;0.00
65383;PMS5003;51986;52.788;41.368;2024-01-06T00:38:04;0.00;0.00;0.00
65383;PMS5003;51986;52.788;41.368;2024-01-06T00:40:31;0.00;0.00;0.00
65383;PMS5003;51986;52.788;41.368;2024-01-06T00:42:59;0.00;0.00;0.00
65383;PMS5003;51986;52.788;41.368;2024-01-06T00:45:26;0.00;0.00;0.00
65383;PMS5003;51986;52.788;41.368;2024-01-06T00:47:53;0.00;0.00;0.00
65383;PMS5003;51986;52.788;41.368;2024-01-06T00:50:20;0.00;0.00;0.00
65383;PMS5003;51986;52.788;41.368;2024-01-06T00:52:47;0.00;0.00;0.00
65383;PMS5003;51986;52.788;41.368;2024-01-06T00:55:14;0.00;0.00;0.00
65383;PMS5003;51986;52.788;41.368;2024-01-06T00:57:41;0.00;0.00;0.00
65383;PMS5003;51986;52.788;41.368;2024-01-06T01:00:08;0.00;0.00;0.00
65383;PMS5003;51986;52.788;41.368;2024-01-06T01:02:36;0.00;0.00;0.00
65383;PMS5003;51986;52.788;41.368;2024-01-06T01:05:05;0.00;0.00;0.00
65383;PMS5003;51986;52.788;41.368;2024-01-06T01:07:33;0.00;0.00;0.00
65383;PMS5003;51986;52.788;41.368;2024-01-06T01:10:00;0.00;0.00;0.00
65383;PMS5003;51986;52.788;41.368;2024-01-06T01:12:27;0.00;0.00;0.00
65383;PMS5003;51986;52.788;41.368;2024-01-06T01:14:54;0.00;0.00;0.00
65383;PMS5003;51986;52.788;41.368;2024-01-06T01:17:21;0.00;0.00;0.00
65383;PMS5003;51986;52.788;41.368;2024-01-06T01:19:48;0.00;0.00;0.00
65383;PMS5003;51986;52.788;41.368;2024-01-06T01:22:16;0.00;0.00;0.00
65383;PMS5003;51986;52.788;41.368;2024-01-06T01:24:43;1.00;0.00;0.00
65383;PMS5003;51986;52.788;41.368;2024-01-06T01:27:10;0.00;0.00;0.00
65383;PMS5003;51986;52.788;41.368;2024-01-06T01:29:37;0.00;0.00;0.00
65383;PMS5003;51986;52.788;41.368;2024-01-06T01:32:05;0.00;0.00;0.00
65383;PMS5003;51986;52.788;41.368;2024-01-06T01:34:32;0.00;0.00;0.00
65383;PMS5003;51986;52.788;41.368;2024-01-06T01:37:00;0.00;0.00;0.00
65383;PMS5003;51986;52.788;41.368;2024-01-06T01:39:27;0.00;0.00;0.00
65383;PMS5003;51986;52.788;41.368;2024-01-06T01:41:54;0.00;0.00;0.00
65383;PMS5003;51986;52.788;41.368;2024-01-06T01:44:21;0.00;0.00;0.00
65383;PMS5003;51986;52.788;41.368;2024-01-06T01:46:48;0.00;0.00;0.00
65383;PMS5003;51986;52.788;41.368;2024-01-06T01:49:16;0.00;0.00;0.00
65383;PMS5003;51986;52.788;41.368;2024-01-06T01:51:43;0.00;0.00;0.00
65383;PMS5003;51986;52.788;41.368;2024-01-06T01:54:11;0.00;0.00;0.00
65383;PMS5003;51986;52.788;41.368;2024-01-06T01:56:39;0.00;0.00;0.00
65383;PMS5003;51986;52.788;41.368;2024-01-06T01:59:17;0.00;0.00;0.00
65383;PMS5003;51986;52.788;41.368;2024-01-06T02:01:45;0.00;0.00;0.00
65383;PMS5003;51986;52.788;41.368;2024-01-06T02:04:12;0.00;0.00;0.00
65383;PMS5003;51986;52.788;41.368;2024-01-06T02:06:40;0.00;0.00;0.00
65383;PMS5003;51986;52.788;41.368;2024-01-06T02:09:07;0.00;0.00;0.00
65383;PMS5003;51986;52.788;41.368;2024-01-06T02:11:34;0.00;0.00;0.00
65383;PMS5003;51986;52.788;41.368;2024-01-06T02:14:01;0.00;0.00;0.00
65383;PMS5003;51986;52.788;41.368;2024-01-06T02:16:28;0.00;0.00;0.00
65383;PMS5003;51986;52.788;41.368;2024-01-06T02:18:55;0.00;0.00;0.00
65383;PMS5003;51986;52.788;41.368;2024-01-06T02:21:23;1.00;0.00;0.00
65383;PMS5003;51986;52.788;41.368;2024-01-06T02:23:50;0.00;0.00;0.00
65383;PMS5003;51986;52.788;41.368;2024-01-06T02:26:17;0.00;0.00;0.00
65383;PMS5003;51986;52.788;41.368;2024-01-06T02:28:44;0.00;0.00;0.00
65383;PMS5003;51986;52.788;41.368;2024-01-06T02:31:11;0.00;0.00;0.00
65383;PMS5003;51986;52.788;41.368;2024-01-06T02:33:38;0.00;0.00;0.00
65383;PMS5003;51986;52.788;41.368;2024-01-06T02:36:06;0.00;0.00;0.00
65383;PMS5003;51986;52.788;41.368;2024-01-06T02:38:33;0.00;0.00;0.00
65383;PMS5003;51986;52.788;41.368;2024-01-06T02:41:00;0.00;0.00;0.00
65383;PMS5003;51986;52.788;41.368;2024-01-06T02:43:27;0.00;0.00;0.00
65383;PMS5003;51986;52.788;41.368;2024-01-06T02:45:54;0.00;0.00;0.00
65383;PMS5003;51986;52.788;41.368;2024-01-06T02:48:21;0.00;0.00;0.00
65383;PMS5003;51986;52.788;41.368;2024-01-06T02:50:49;0.00;0.00;0.00
65383;PMS5003;51986;52.788;41.368;2024-01-06T02:53:16;0.50;0.50;0.00
65383;PMS5003;51986;52.788;41.368;2024-01-06T02:55:43;1.50;1.50;0.50
65383;PMS5003;51986;52.788;41.368;2024-01-06T02:58:10;1.00;1.00;0.75
65383;PMS5003;51986;52.788;41.368;2024-01-06T03:00:37;4.00;4.00;2.75
65383;PMS5003;51986;52.788;41.368;2024-01-06T03:03:05;1.00;1.00;0.00
65383;PMS5003;51986;52.788;41.368;2024-01-06T03:05:32;3.00;2.00;1.00
65383;PMS5003;51986;52.788;41.368;2024-01-06T03:07:59;1.50;0.50;0.25
65383;PMS5003;51986;52.788;41.368;2024-01-06T03:10:26;1.00;0.00;0.00
65383;PMS5003;51986;52.788;41.368;2024-01-06T03:12:53;0.50;0.00;0.00
65383;PMS5003;51986;52.788;41.368;2024-01-06T03:15:20;0.25;0.00;0.00
65383;PMS5003;51986;52.788;41.368;2024-01-06T03:17:47;1.00;0.75;0.00
65383;PMS5003;51986;52.788;41.368;2024-01-06T03:20:15;0.00;0.00;0.00
65383;PMS5003;51986;52.788;41.368;2024-01-06T03:22:43;1.00;1.00;0.00
65383;PMS5003;51986;52.788;41.368;2024-01-06T03:25:10;0.75;0.25;0.00
65383;PMS5003;51986;52.788;41.368;2024-01-06T03:27:37;0.00;0.00;0.00
65383;PMS5003;51986;52.788;41.368;2024-01-06T03:30:04;2.00;0.25;0.00
65383;PMS5003;51986;52.788;41.368;2024-01-06T03:32:32;0.00;0.00;0.00
65383;PMS5003;51986;52.788;41.368;2024-01-06T03:34:59;1.00;1.00;0.00
65383;PMS5003;51986;52.788;41.368;2024-01-06T03:37:26;0.00;0.00;0.00
65383;PMS5003;51986;52.788;41.368;2024-01-06T03:39:53;1.00;0.75;0.00
65383;PMS5003;51986;52.788;41.368;2024-01-06T03:42:20;0.00;0.00;0.00
65383;PMS5003;51986;52.788;41.368;2024-01-06T03:44:47;0.00;0.00;0.00
65383;PMS5003;51986;52.788;41.368;2024-01-06T03:47:14;0.00;0.00;0.00
65383;PMS5003;51986;52.788;41.368;2024-01-06T03:49:41;0.00;0.00;0.00
65383;PMS5003;51986;52.788;41.368;2024-01-06T03:52:08;1.00;0.00;0.00
65383;PMS5003;51986;52.788;41.368;2024-01-06T03:54:36;1.00;0.00;0.00
65383;PMS5003;51986;52.788;41.368;2024-01-06T03:57:03;1.00;1.00;0.00
65383;PMS5003;51986;52.788;41.368;2024-01-06T03:59:30;1.00;0.25;0.00
65383;PMS5003;51986;52.788;41.368;2024-01-06T04:01:57;1.25;1.25;0.75
65383;PMS5003;51986;52.788;41.368;2024-01-06T04:04:24;1.25;0.00;0.00
65383;PMS5003;51986;52.788;41.368;2024-01-06T04:06:51;1.00;0.00;0.00
65383;PMS5003;51986;52.788;41.368;2024-01-06T04:09:18;2.00;1.00;0.00
65383;PMS5003;51986;52.788;41.368;2024-01-06T04:11:45;0.00;0.00;0.00
65383;PMS5003;51986;52.788;41.368;2024-01-06T04:14:13;1.00;0.00;0.00
65383;PMS5003;51986;52.788;41.368;2024-01-06T04:16:40;1.00;0.00;0.00
65383;PMS5003;51986;52.788;41.368;2024-01-06T04:19:07;1.00;0.75;0.00
65383;PMS5003;51986;52.788;41.368;2024-01-06T04:21:34;0.00;0.00;0.00
65383;PMS5003;51986;52.788;41.368;2024-01-06T04:24:01;1.00;1.00;0.00
65383;PMS5003;51986;52.788;41.368;2024-01-06T04:26:28;2.00;1.25;0.00
65383;PMS5003;51986;52.788;41.368;2024-01-06T04:28:56;1.00;1.00;0.00
65383;PMS5003;51986;52.788;41.368;2024-01-06T04:31:23;0.00;0.00;0.00
65383;PMS5003;51986;52.788;41.368;2024-01-06T04:33:50;0.00;0.00;0.00
65383;PMS5003;51986;52.788;41.368;2024-01-06T04:36:17;0.00;0.00;0.00
65383;PMS5003;51986;52.788;41.368;2024-01-06T04:38:44;0.00;0.00;0.00
65383;PMS5003;51986;52.788;41.368;2024-01-06T04:41:11;1.00;1.00;0.00
65383;PMS5003;51986;52.788;41.368;2024-01-06T04:43:38;1.00;1.00;0.00
65383;PMS5003;51986;52.788;41.368;2024-01-06T04:46:05;2.75;0.75;0.00
65383;PMS5003;51986;52.788;41.368;2024-01-06T04:48:32;1.00;0.25;0.00
65383;PMS5003;51986;52.788;41.368;2024-01-06T04:50:59;1.00;1.00;0.00
65383;PMS5003;51986;52.788;41.368;2024-01-06T04:53:26;2.50;1.00;0.00
65383;PMS5003;51986;52.788;41.368;2024-01-06T04:55:53;1.00;1.00;0.00
65383;PMS5003;51986;52.788;41.368;2024-01-06T04:58:20;1.00;1.00;0.00
65383;PMS5003;51986;52.788;41.368;2024-01-06T05:00:47;1.00;1.00;0.00
65383;PMS5003;51986;52.788;41.368;2024-01-06T05:03:14;3.00;2.00;1.00
65383;PMS5003;51986;52.788;41.368;2024-01-06T05:05:42;1.00;0.50;0.00
65383;PMS5003;51986;52.788;41.368;2024-01-06T05:08:09;1.00;1.00;1.00
65383;PMS5003;51986;52.788;41.368;2024-01-06T05:10:36;1.00;0.00;0.00
65383;PMS5003;51986;52.788;41.368;2024-01-06T05:13:03;1.00;0.25;0.00
65383;PMS5003;51986;52.788;41.368;2024-01-06T05:15:30;1.00;1.00;0.00
65383;PMS5003;51986;52.788;41.368;2024-01-06T05:17:57;3.00;1.25;0.00
65383;PMS5003;51986;52.788;41.368;2024-01-06T05:20:24;3.00;3.00;1.00
65383;PMS5003;51986;52.788;41.368;2024-01-06T05:22:51;4.00;3.00;1.00
65383;PMS5003;51986;52.788;41.368;2024-01-06T05:25:18;3.00;3.00;1.00
65383;PMS5003;51986;52.788;41.368;2024-01-06T05:27:45;1.25;1.00;1.00
65383;PMS5003;51986;52.788;41.368;2024-01-06T05:30:12;1.00;1.00;1.00
65383;PMS5003;51986;52.788;41.368;2024-01-06T05:32:40;3.00;2.00;1.00
65383;PMS5003;51986;52.788;41.368;2024-01-06T05:35:07;1.00;1.00;1.00
65383;PMS5003;51986;52.788;41.368;2024-01-06T05:37:34;2.75;2.00;1.00
65383;PMS5003;51986;52.788;41.368;2024-01-06T05:40:01;2.25;2.25;1.25
65383;PMS5003;51986;52.788;41.368;2024-01-06T05:42:28;3.00;2.75;1.00
65383;PMS5003;51986;52.788;41.368;2024-01-06T05:44:56;3.00;3.00;1.00
65383;PMS5003;51986;52.788;41.368;2024-01-06T05:47:23;2.75;2.75;1.00
65383;PMS5003;51986;52.788;41.368;2024-01-06T05:49:50;4.00;3.00;1.00
65383;PMS5003;51986;52.788;41.368;2024-01-06T05:52:17;3.00;2.25;1.25
65383;PMS5003;51986;52.788;41.368;2024-01-06T05:54:44;1.00;1.00;1.00
65383;PMS5003;51986;52.788;41.368;2024-01-06T05:57:11;3.00;3.00;2.00
65383;PMS5003;51986;52.788;41.368;2024-01-06T05:59:38;3.00;3.00;1.00
65383;PMS5003;51986;52.788;41.368;2024-01-06T06:02:05;3.00;3.00;1.00
65383;PMS5003;51986;52.788;41.368;2024-01-06T06:04:32;2.00;2.00;0.00
65383;PMS5003;51986;52.788;41.368;2024-01-06T06:06:59;2.50;2.00;1.00
65383;PMS5003;51986;52.788;41.368;2024-01-06T06:09:28;3.00;2.00;1.00
65383;PMS5003;51986;52.788;41.368;2024-01-06T06:11:55;3.00;2.75;1.00
65383;PMS5003;51986;52.788;41.368;2024-01-06T06:14:22;3.00;3.00;1.00
65383;PMS5003;51986;52.788;41.368;2024-01-06T06:16:53;2.50;2.00;1.00
65383;PMS5003;51986;52.788;41.368;2024-01-06T06:19:20;3.00;2.50;1.00
65383;PMS5003;51986;52.788;41.368;2024-01-06T06:21:48;3.00;3.00;1.00
65383;PMS5003;51986;52.788;41.368;2024-01-06T06:24:15;2.00;2.00;1.00
65383;PMS5003;51986;52.788;41.368;2024-01-06T06:26:42;3.00;3.00;1.00
65383;PMS5003;51986;52.788;41.368;2024-01-06T06:29:09;3.50;2.00;1.00
65383;PMS5003;51986;52.788;41.368;2024-01-06T06:31:36;2.75;2.00;0.75
65383;PMS5003;51986;52.788;41.368;2024-01-06T06:34:03;1.50;1.50;1.00
65383;PMS5003;51986;52.788;41.368;2024-01-06T06:36:35;1.00;1.00;0.75
65383;PMS5003;51986;52.788;41.368;2024-01-06T06:39:02;3.00;2.50;1.00
65383;PMS5003;51986;52.788;41.368;2024-01-06T06:41:30;2.50;2.00;1.00
65383;PMS5003;51986;52.788;41.368;2024-01-06T06:43:57;4.00;3.75;2.75
65383;PMS5003;51986;52.788;41.368;2024-01-06T06:46:24;3.00;3.00;1.50
65383;PMS5003;51986;52.788;41.368;2024-01-06T06:48:51;3.00;2.50;1.00
65383;PMS5003;51986;52.788;41.368;2024-01-06T06:51:18;3.00;3.00;1.25
65383;PMS5003;51986;52.788;41.368;2024-01-06T06:53:46;3.25;3.25;1.75
65383;PMS5003;51986;52.788;41.368;2024-01-06T06:56:15;4.00;3.00;1.00
65383;PMS5003;51986;52.788;41.368;2024-01-06T06:58:42;4.25;4.00;2.00
65383;PMS5003;51986;52.788;41.368;2024-01-06T07:01:10;6.25;6.00;3.00
65383;PMS5003;51986;52.788;41.368;2024-01-06T07:03:37;3.00;3.00;1.00
65383;PMS5003;51986;52.788;41.368;2024-01-06T07:06:04;4.00;4.00;1.25
65383;PMS5003;51986;52.788;41.368;2024-01-06T07:08:31;5.00;4.00;2.00
65383;PMS5003;51986;52.788;41.368;2024-01-06T07:10:58;4.75;4.00;3.00
65383;PMS5003;51986;52.788;41.368;2024-01-06T07:13:26;4.00;3.00;1.00
65383;PMS5003;51986;52.788;41.368;2024-01-06T07:15:53;4.00;3.00;1.50
65383;PMS5003;51986;52.788;41.368;2024-01-06T07:18:33;4.00;4.00;2.00
65383;PMS5003;51986;52.788;41.368;2024-01-06T07:21:00;6.00;4.00;3.00
65383;PMS5003;51986;52.788;41.368;2024-01-06T07:23:28;4.00;3.25;2.00
65383;PMS5003;51986;52.788;41.368;2024-01-06T07:25:55;4.25;4.25;3.00
65383;PMS5003;51986;52.788;41.368;2024-01-06T07:28:22;3.25;3.00;1.00
65383;PMS5003;51986;52.788;41.368;2024-01-06T07:30:49;4.00;4.00;1.50
65383;PMS5003;51986;52.788;41.368;2024-01-06T07:33:16;5.00;4.75;2.75
65383;PMS5003;51986;52.788;41.368;2024-01-06T07:35:43;5.25;5.00;3.00
65383;PMS5003;51986;52.788;41.368;2024-01-06T07:38:10;6.00;5.00;3.00
65383;PMS5003;51986;52.788;41.368;2024-01-06T07:40:38;3.00;2.75;1.00
65383;PMS5003;51986;52.788;41.368;2024-01-06T07:43:05;3.75;3.25;3.00
65383;PMS5003;51986;52.788;41.368;2024-01-06T07:45:32;4.00;4.00;2.00
65383;PMS5003;51986;52.788;41.368;2024-01-06T07:48:03;4.75;4.00;2.00
65383;PMS5003;51986;52.788;41.368;2024-01-06T07:50:30;4.00;4.00;2.25
65383;PMS5003;51986;52.788;41.368;2024-01-06T07:52:57;4.00;3.00;1.00
65383;PMS5003;51986;52.788;41.368;2024-01-06T07:55:24;5.50;4.50;2.00
65383;PMS5003;51986;52.788;41.368;2024-01-06T07:57:54;7.00;5.00;4.00
65383;PMS5003;51986;52.788;41.368;2024-01-06T08:00:22;8.00;5.00;4.00
65383;PMS5003;51986;52.788;41.368;2024-01-06T08:02:49;4.00;4.00;3.00
65383;PMS5003;51986;52.788;41.368;2024-01-06T08:05:16;3.00;3.00;1.25
65383;PMS5003;51986;52.788;41.368;2024-01-06T08:07:43;4.00;4.00;1.75
65383;PMS5003;51986;52.788;41.368;2024-01-06T08:10:10;4.25;4.25;3.00
65383;PMS5003;51986;52.788;41.368;2024-01-06T08:12:37;5.00;4.00;1.00
65383;PMS5003;51986;52.788;41.368;2024-01-06T08:15:04;4.00;3.00;1.00
65383;PMS5003;51986;52.788;41.368;2024-01-06T08:17:32;3.00;3.00;1.00
65383;PMS5003;51986;52.788;41.368;2024-01-06T08:19:59;6.00;6.00;3.75
65383;PMS5003;51986;52.788;41.368;2024-01-06T08:22:26;4.00;3.25;2.00
65383;PMS5003;51986;52.788;41.368;2024-01-06T08:24:53;5.00;5.00;3.00
65383;PMS5003;51986;52.788;41.368;2024-01-06T08:27:20;4.00;3.00;1.75
65383;PMS5003;51986;52.788;41.368;2024-01-06T08:29:47;3.25;3.00;1.00
65383;PMS5003;51986;52.788;41.368;2024-01-06T08:32:15;2.50;2.25;1.00
65383;PMS5003;51986;52.788;41.368;2024-01-06T08:34:42;5.75;5.75;2.75
65383;PMS5003;51986;52.788;41.368;2024-01-06T08:37:09;5.00;4.75;3.00
65383;PMS5003;51986;52.788;41.368;2024-01-06T08:39:36;4.00;3.00;2.00
65383;PMS5003;51986;52.788;41.368;2024-01-06T08:42:03;5.00;5.00;3.00
65383;PMS5003;51986;52.788;41.368;2024-01-06T08:44:30;7.00;6.75;5.00
65383;PMS5003;51986;52.788;41.368;2024-01-06T08:46:57;6.25;5.25;4.50
65383;PMS5003;51986;52.788;41.368;2024-01-06T08:49:25;4.00;4.00;3.00
65383;PMS5003;51986;52.788;41.368;2024-01-06T08:51:52;6.00;6.00;4.00
65383;PMS5003;51986;52.788;41.368;2024-01-06T08:54:19;6.00;6.00;5.00
65383;PMS5003;51986;52.788;41.368;2024-01-06T08:56:46;6.25;6.25;5.00
65383;PMS5003;51986;52.788;41.368;2024-01-06T08:59:13;9.00;8.00;5.25
65383;PMS5003;51986;52.788;41.368;2024-01-06T09:01:40;9.00;7.00;4.00
65383;PMS5003;51986;52.788;41.368;2024-01-06T09:04:07;7.50;6.25;4.00
65383;PMS5003;51986;52.788;41.368;2024-01-06T09:06:34;5.25;3.25;1.00
65383;PMS5003;51986;52.788;41.368;2024-01-06T09:09:01;2.25;2.00;1.00
65383;PMS5003;51986;52.788;41.368;2024-01-06T09:11:28;5.75;5.50;3.50
65383;PMS5003;51986;52.788;41.368;2024-01-06T09:13:55;4.25;4.00;2.00
65383;PMS5003;51986;52.788;41.368;2024-01-06T09:16:22;5.00;5.00;4.00
65383;PMS5003;51986;52.788;41.368;2024-01-06T09:18:50;6.25;6.25;4.00
65383;PMS5003;51986;52.788;41.368;2024-01-06T09:21:17;3.00;3.00;1.00
65383;PMS5003;51986;52.788;41.368;2024-01-06T09:23:44;4.50;3.00;1.75
65383;PMS5003;51986;52.788;41.368;2024-01-06T09:26:12;7.00;6.00;5.25
65383;PMS5003;51986;52.788;41.368;2024-01-06T09:28:39;9.00;8.00;6.00
65383;PMS5003;51986;52.788;41.368;2024-01-06T09:31:06;12.00;10.25;8.00
65383;PMS5003;51986;52.788;41.368;2024-01-06T09:33:34;7.50;5.75;4.00
65383;PMS5003;51986;52.788;41.368;2024-01-06T09:36:01;5.00;3.75;3.00
65383;PMS5003;51986;52.788;41.368;2024-01-06T09:38:29;7.25;7.25;5.75
65383;PMS5003;51986;52.788;41.368;2024-01-06T09:40:56;8.00;6.00;4.00
65383;PMS5003;51986;52.788;41.368;2024-01-06T09:43:24;9.50;8.50;7.25
65383;PMS5003;51986;52.788;41.368;2024-01-06T09:46:11;7.50;6.00;3.75
65383;PMS5003;51986;52.788;41.368;2024-01-06T09:48:44;5.75;5.00;3.00
65383;PMS5003;51986;52.788;41.368;2024-01-06T09:51:14;10.00;8.50;6.50
65383;PMS5003;51986;52.788;41.368;2024-01-06T09:53:48;11.50;10.00;8.00
65383;PMS5003;51986;52.788;41.368;2024-01-06T09:56:22;11.00;9.75;7.00
65383;PMS5003;51986;52.788;41.368;2024-01-06T09:58:51;11.50;10.00;8.25
65383;PMS5003;51986;52.788;41.368;2024-01-06T10:01:18;12.00;11.00;9.00
65383;PMS5003;51986;52.788;41.368;2024-01-06T10:03:46;8.00;6.75;5.00
65383;PMS5003;51986;52.788;41.368;2024-01-06T10:06:14;10.00;8.00;6.00
65383;PMS5003;51986;52.788;41.368;2024-01-06T10:08:47;10.00;9.75;6.00
65383;PMS5003;51986;52.788;41.368;2024-01-06T10:11:16;10.00;9.25;6.00
65383;PMS5003;51986;52.788;41.368;2024-01-06T10:13:43;8.00;7.00;5.00
65383;PMS5003;51986;52.788;41.368;2024-01-06T10:16:10;7.00;5.00;3.00
65383;PMS5003;51986;52.788;41.368;2024-01-06T10:18:37;7.75;7.75;6.50
65383;PMS5003;51986;52.788;41.368;2024-01-06T10:21:05;12.00;10.75;8.50
65383;PMS5003;51986;52.788;41.368;2024-01-06T10:23:33;8.00;8.00;5.00
65383;PMS5003;51986;52.788;41.368;2024-01-06T10:26:00;5.00;5.00;3.00
65383;PMS5003;51986;52.788;41.368;2024-01-06T10:28:31;8.25;8.00;6.50
65383;PMS5003;51986;52.788;41.368;2024-01-06T10:30:58;9.75;7.75;5.00
65383;PMS5003;51986;52.788;41.368;2024-01-06T10:33:25;9.75;9.75;6.50
65383;PMS5003;51986;52.788;41.368;2024-01-06T10:35:55;14.00;13.50;10.00
65383;PMS5003;51986;52.788;41.368;2024-01-06T10:38:23;10.00;8.25;5.25
65383;PMS5003;51986;52.788;41.368;2024-01-06T10:40:58;8.00;6.50;4.50
65383;PMS5003;51986;52.788;41.368;2024-01-06T10:43:30;6.00;5.00;3.00
65383;PMS5003;51986;52.788;41.368;2024-01-06T10:45:59;6.75;6.50;6.00
65383;PMS5003;51986;52.788;41.368;2024-01-06T10:48:29;7.00;5.50;5.00
65383;PMS5003;51986;52.788;41.368;2024-01-06T10:50:58;8.50;7.50;6.25
65383;PMS5003;51986;52.788;41.368;2024-01-06T10:53:27;10.00;10.00;8.00
65383;PMS5003;51986;52.788;41.368;2024-01-06T10:55:54;11.50;10.50;8.00
65383;PMS5003;51986;52.788;41.368;2024-01-06T10:58:23;11.50;10.00;6.50
65383;PMS5003;51986;52.788;41.368;2024-01-06T11:00:50;8.00;7.75;4.00
65383;PMS5003;51986;52.788;41.368;2024-01-06T11:03:17;5.00;5.00;3.00
65383;PMS5003;51986;52.788;41.368;2024-01-06T11:05:46;4.25;4.25;2.00
65383;PMS5003;51986;52.788;41.368;2024-01-06T11:08:13;6.50;5.75;4.50
65383;PMS5003;51986;52.788;41.368;2024-01-06T11:10:45;5.00;4.00;3.00
65383;PMS5003;51986;52.788;41.368;2024-01-06T11:13:13;6.25;5.75;5.25
65383;PMS5003;51986;52.788;41.368;2024-01-06T11:15:42;9.00;9.00;6.00
65383;PMS5003;51986;52.788;41.368;2024-01-06T11:21:16;5.00;5.00;3.00
65383;PMS5003;51986;52.788;41.368;2024-01-06T11:23:45;6.00;5.00;3.00
65383;PMS5003;51986;52.788;41.368;2024-01-06T11:26:13;4.25;4.00;2.50
65383;PMS5003;51986;52.788;41.368;2024-01-06T11:28:47;8.75;7.50;3.00
65383;PMS5003;51986;52.788;41.368;2024-01-06T11:31:17;9.00;7.00;3.75
65383;PMS5003;51986;52.788;41.368;2024-01-06T11:33:46;10.00;7.00;4.25
65383;PMS5003;51986;52.788;41.368;2024-01-06T11:36:18;10.00;9.00;6.00
65383;PMS5003;51986;52.788;41.368;2024-01-06T11:38:47;5.75;5.25;3.00
65383;PMS5003;51986;52.788;41.368;2024-01-06T11:41:44;3.75;3.00;2.00
65383;PMS5003;51986;52.788;41.368;2024-01-06T11:44:18;3.00;2.00;1.00
65383;PMS5003;51986;52.788;41.368;2024-01-06T11:46:47;6.00;5.00;3.50
65383;PMS5003;51986;52.788;41.368;2024-01-06T11:49:16;5.00;3.50;2.50
65383;PMS5003;51986;52.788;41.368;2024-01-06T11:51:44;6.00;5.00;3.00
65383;PMS5003;51986;52.788;41.368;2024-01-06T11:54:11;5.00;4.75;3.00
65383;PMS5003;51986;52.788;41.368;2024-01-06T11:56:38;5.00;5.00;4.00
65383;PMS5003;51986;52.788;41.368;2024-01-06T11:59:06;4.00;4.00;3.00
65383;PMS5003;51986;52.788;41.368;2024-01-06T12:01:37;3.00;3.00;1.00
65383;PMS5003;51986;52.788;41.368;2024-01-06T12:04:05;5.00;3.00;1.25
65383;PMS5003;51986;52.788;41.368;2024-01-06T12:06:33;5.50;5.25;5.00
65383;PMS5003;51986;52.788;41.368;2024-01-06T12:09:12;3.00;2.25;2.00
65383;PMS5003;51986;52.788;41.368;2024-01-06T12:11:39;4.50;3.50;1.50
65383;PMS5003;51986;52.788;41.368;2024-01-06T12:14:06;6.00;5.00;4.00
65383;PMS5003;51986;52.788;41.368;2024-01-06T12:16:34;5.00;5.00;3.00
65383;PMS5003;51986;52.788;41.368;2024-01-06T12:19:01;3.00;3.00;1.75
65383;PMS5003;51986;52.788;41.368;2024-01-06T12:21:28;3.25;3.00;1.00
65383;PMS5003;51986;52.788;41.368;2024-01-06T12:26:58;4.25;3.00;2.00
65383;PMS5003;51986;52.788;41.368;2024-01-06T12:29:26;6.00;5.00;3.50
65383;PMS5003;51986;52.788;41.368;2024-01-06T12:31:54;5.25;3.00;2.50
65383;PMS5003;51986;52.788;41.368;2024-01-06T12:34:21;4.00;3.00;1.00
65383;PMS5003;51986;52.788;41.368;2024-01-06T12:36:51;5.00;4.00;2.25
65383;PMS5003;51986;52.788;41.368;2024-01-06T12:39:20;3.00;2.00;1.00
65383;PMS5003;51986;52.788;41.368;2024-01-06T12:41:48;4.25;3.25;3.00
65383;PMS5003;51986;52.788;41.368;2024-01-06T12:44:18;5.75;5.75;3.00
65383;PMS5003;51986;52.788;41.368;2024-01-06T12:46:45;7.00;6.00;4.00
65383;PMS5003;51986;52.788;41.368;2024-01-06T12:49:12;6.00;5.00;3.00
65383;PMS5003;51986;52.788;41.368;2024-01-06T12:51:39;4.75;4.75;3.25
65383;PMS5003;51986;52.788;41.368;2024-01-06T12:54:07;3.75;3.00;2.00
65383;PMS5003;51986;52.788;41.368;2024-01-06T12:56:35;3.00;2.00;1.00
65383;PMS5003;51986;52.788;41.368;2024-01-06T12:59:02;5.00;4.00;2.00
65383;PMS5003;51986;52.788;41.368;2024-01-06T13:01:29;4.50;3.50;3.00
65383;PMS5003;51986;52.788;41.368;2024-01-06T13:03:57;4.50;3.75;3.00
65383;PMS5003;51986;52.788;41.368;2024-01-06T13:06:24;3.25;3.00;2.00
65383;PMS5003;51986;52.788;41.368;2024-01-06T13:08:51;1.00;1.00;0.00
65383;PMS5003;51986;52.788;41.368;2024-01-06T13:11:18;4.00;4.00;2.50
65383;PMS5003;51986;52.788;41.368;2024-01-06T13:13:46;6.00;3.75;2.00
65383;PMS5003;51986;52.788;41.368;2024-01-06T13:16:13;4.00;3.00;1.00
65383;PMS5003;51986;52.788;41.368;2024-01-06T13:18:40;5.00;5.00;2.50
65383;PMS5003;51986;52.788;41.368;2024-01-06T13:21:07;5.00;4.00;3.00
65383;PMS5003;51986;52.788;41.368;2024-01-06T13:23:34;4.50;3.00;1.00
65383;PMS5003;51986;52.788;41.368;2024-01-06T13:26:02;5.75;5.00;4.25
65383;PMS5003;51986;52.788;41.368;2024-01-06T13:28:29;5.00;3.00;2.00
65383;PMS5003;51986;52.788;41.368;2024-01-06T13:30:56;6.00;5.00;3.00
65383;PMS5003;51986;52.788;41.368;2024-01-06T13:33:23;6.00;5.75;4.25
65383;PMS5003;51986;52.788;41.368;2024-01-06T13:35:50;6.00;5.00;4.00
65383;PMS5003;51986;52.788;41.368;2024-01-06T13:38:17;4.75;4.50;2.50
65383;PMS5003;51986;52.788;41.368;2024-01-06T13:40:44;4.00;3.00;1.00
65383;PMS5003;51986;52.788;41.368;2024-01-06T13:43:11;5.50;4.75;3.00
65383;PMS5003;51986;52.788;41.368;2024-01-06T13:45:39;5.00;3.00;2.00
65383;PMS5003;51986;52.788;41.368;2024-01-06T13:48:07;4.00;4.00;3.00
65383;PMS5003;51986;52.788;41.368;2024-01-06T13:50:36;3.00;3.00;2.25
65383;PMS5003;51986;52.788;41.368;2024-01-06T13:53:03;3.75;3.25;2.00
65383;PMS5003;51986;52.788;41.368;2024-01-06T13:55:30;5.50;5.50;2.75
65383;PMS5003;51986;52.788;41.368;2024-01-06T13:57:57;5.00;5.00;3.00
65383;PMS5003;51986;52.788;41.368;2024-01-06T14:00:25;3.00;3.00;1.00
65383;PMS5003;51986;52.788;41.368;2024-01-06T14:02:52;2.75;1.50;0.00
65383;PMS5003;51986;52.788;41.368;2024-01-06T14:05:19;1.25;1.25;1.00
65383;PMS5003;51986;52.788;41.368;2024-01-06T14:07:47;3.50;3.00;3.00
65383;PMS5003;51986;52.788;41.368;2024-01-06T14:10:14;4.00;3.00;2.00
65383;PMS5003;51986;52.788;41.368;2024-01-06T14:12:41;3.00;2.50;1.00
65383;PMS5003;51986;52.788;41.368;2024-01-06T14:15:08;7.50;6.50;3.75
65383;PMS5003;51986;52.788;41.368;2024-01-06T14:17:36;9.75;7.50;5.00